createdAt,value
2023-04-20T00:00:41.033Z,21.93
2023-04-20T00:03:08.189Z,23.00
2023-04-20T00:05:34.803Z,21.27
2023-04-20T00:08:01.304Z,19.97
2023-04-20T00:10:27.941Z,18.67
2023-04-20T00:12:54.396Z,20.53
2023-04-20T00:15:21.095Z,23.43
2023-04-20T00:17:48.689Z,20.83
2023-04-20T00:20:15.522Z,23.10
2023-04-20T00:22:41.925Z,22.87
2023-04-20T00:25:08.740Z,21.87
2023-04-20T00:27:35.363Z,18.57
2023-04-20T00:30:01.903Z,21.40
2023-04-20T00:32:28.539Z,22.20
2023-04-20T00:34:55.023Z,22.57
2023-04-20T00:37:21.438Z,19.90
2023-04-20T00:39:47.966Z,21.00
2023-04-20T00:42:14.395Z,21.00
2023-04-20T00:44:41.005Z,19.57
2023-04-20T00:47:07.426Z,23.20
2023-04-20T00:49:33.855Z,21.93
2023-04-20T00:52:00.567Z,19.90
2023-04-20T00:54:27.272Z,21.90
2023-04-20T00:56:54.089Z,25.63
2023-04-20T00:59:22.126Z,24.67
2023-04-20T01:01:48.677Z,25.67
2023-04-20T01:04:15.334Z,22.87
2023-04-20T01:06:41.895Z,24.47
2023-04-20T01:09:08.404Z,22.33
2023-04-20T01:11:34.829Z,23.30
2023-04-20T01:14:01.560Z,24.30
2023-04-20T01:16:28.082Z,21.67
2023-04-20T01:18:54.567Z,21.83
2023-04-20T01:21:23.952Z,20.00
2023-04-20T01:23:50.483Z,20.43
2023-04-20T01:26:17.741Z,22.23
2023-04-20T01:28:44.458Z,22.57
2023-04-20T01:31:11.179Z,22.90
2023-04-20T01:33:37.609Z,21.83
2023-04-20T01:36:04.734Z,21.00
2023-04-20T01:38:33.057Z,22.03
2023-04-20T01:40:59.580Z,23.30
2023-04-20T01:43:26.281Z,24.63
2023-04-20T01:45:52.710Z,22.63
2023-04-20T01:48:19.174Z,22.53
2023-04-20T01:50:45.717Z,23.57
2023-04-20T01:53:13.786Z,24.40
2023-04-20T01:55:40.295Z,22.23
2023-04-20T01:58:06.952Z,20.53
2023-04-20T02:00:33.597Z,21.70
2023-04-20T02:03:00.161Z,24.43
2023-04-20T02:05:26.736Z,23.03
2023-04-20T02:07:53.166Z,24.60
2023-04-20T02:10:19.667Z,25.33
2023-04-20T02:12:46.166Z,26.43
2023-04-20T02:15:12.594Z,24.83
2023-04-20T02:17:39.118Z,23.37
2023-04-20T02:20:07.415Z,22.93
2023-04-20T02:22:35.143Z,21.90
2023-04-20T02:25:02.163Z,24.93
2023-04-20T02:27:28.602Z,22.43
2023-04-20T02:29:55.046Z,22.23
2023-04-20T02:32:21.479Z,22.13
2023-04-20T02:34:47.939Z,22.47
2023-04-20T02:37:14.365Z,22.27
2023-04-20T02:39:40.833Z,22.53
2023-04-20T02:42:07.685Z,22.27
2023-04-20T02:44:34.097Z,24.57
2023-04-20T02:47:00.590Z,23.23
2023-04-20T02:49:27.080Z,23.90
2023-04-20T02:51:53.512Z,22.27
2023-04-20T02:54:19.909Z,21.07
2023-04-20T02:56:46.607Z,23.23
2023-04-20T02:59:13.214Z,22.60
2023-04-20T03:01:39.732Z,23.23
2023-04-20T03:04:06.724Z,25.70
2023-04-20T03:06:33.529Z,23.13
2023-04-20T03:09:00.060Z,22.43
2023-04-20T03:11:26.480Z,26.60
2023-04-20T03:13:52.912Z,22.53
2023-04-20T03:16:19.382Z,23.90
2023-04-20T03:18:45.911Z,24.23
2023-04-20T03:21:12.619Z,24.47
2023-04-20T03:23:39.280Z,26.10
2023-04-20T03:26:05.772Z,28.00
2023-04-20T03:28:32.214Z,24.57
2023-04-20T03:30:58.704Z,25.23
2023-04-20T03:33:25.107Z,27.47
2023-04-20T03:35:51.621Z,28.53
2023-04-20T03:38:18.158Z,25.10
2023-04-20T03:40:44.586Z,27.40
2023-04-20T03:43:12.246Z,23.50
2023-04-20T03:45:38.775Z,23.87
2023-04-20T03:48:05.391Z,27.97
2023-04-20T03:50:31.946Z,23.93
2023-04-20T03:52:58.415Z,22.83
2023-04-20T03:55:24.820Z,25.53
2023-04-20T03:57:51.205Z,21.97
2023-04-20T04:00:17.896Z,27.60
2023-04-20T04:02:44.411Z,24.20
2023-04-20T04:05:11.030Z,28.43
2023-04-20T04:07:37.488Z,27.03
2023-04-20T04:10:05.860Z,28.47
2023-04-20T04:12:32.317Z,25.10
2023-04-20T04:14:58.888Z,26.27
2023-04-20T04:17:25.573Z,25.40
2023-04-20T04:19:52.026Z,24.97
2023-04-20T04:22:18.857Z,24.70
2023-04-20T04:24:45.330Z,26.47
2023-04-20T04:27:14.231Z,28.53
2023-04-20T04:29:41.995Z,25.23
2023-04-20T04:32:09.628Z,26.43
2023-04-20T04:34:36.241Z,26.83
2023-04-20T04:37:02.741Z,26.57
2023-04-20T04:39:29.664Z,23.47
2023-04-20T04:41:57.814Z,26.03
2023-04-20T04:44:26.081Z,21.87
2023-04-20T04:46:52.707Z,24.53
2023-04-20T04:49:20.540Z,23.10
2023-04-20T04:51:48.091Z,20.77
2023-04-20T04:54:14.569Z,24.33
2023-04-20T04:56:41.098Z,24.77
2023-04-20T04:59:07.754Z,24.05
2023-04-20T05:01:34.285Z,24.40
2023-04-20T05:04:01.151Z,25.98
2023-04-20T05:06:27.857Z,25.05
2023-04-20T05:08:54.288Z,25.67
2023-04-20T05:11:20.934Z,25.25
2023-04-20T05:13:48.714Z,23.63
2023-04-20T05:16:15.292Z,24.85
2023-04-20T05:18:41.742Z,21.67
2023-04-20T05:21:08.187Z,21.75
2023-04-20T05:23:34.603Z,24.63
2023-04-20T05:26:01.030Z,23.23
2023-04-20T05:28:27.473Z,23.35
2023-04-20T05:30:55.345Z,21.55
2023-04-20T05:33:22.533Z,22.30
2023-04-20T05:35:49.258Z,21.15
2023-04-20T05:38:15.834Z,20.52
2023-04-20T05:40:42.391Z,19.55
2023-04-20T05:43:18.727Z,16.88
2023-04-20T05:45:46.588Z,17.95
2023-04-20T05:48:13.047Z,17.30
2023-04-20T05:50:39.769Z,20.38
2023-04-20T05:53:06.174Z,18.58
2023-04-20T05:55:32.643Z,17.95
2023-04-20T05:57:59.228Z,18.67
2023-04-20T06:00:26.305Z,21.52
2023-04-20T06:02:54.483Z,20.40
2023-04-20T06:05:21.578Z,20.40
2023-04-20T06:07:48.019Z,22.73
2023-04-20T06:10:14.506Z,22.63
2023-04-20T06:12:41.271Z,23.88
2023-04-20T06:15:09.930Z,24.40
2023-04-20T06:17:37.543Z,24.58
2023-04-20T06:20:05.187Z,23.77
2023-04-20T06:22:31.741Z,24.60
2023-04-20T06:25:00.534Z,23.98
2023-04-20T06:27:27.011Z,25.15
2023-04-20T06:29:54.789Z,20.55
2023-04-20T06:32:21.383Z,20.52
2023-04-20T06:34:48.005Z,19.60
2023-04-20T06:37:14.604Z,18.50
2023-04-20T06:39:41.366Z,16.92
2023-04-20T06:42:08.674Z,17.52
2023-04-20T06:44:35.155Z,17.15
2023-04-20T06:47:01.778Z,16.65
2023-04-20T06:49:28.311Z,14.75
2023-04-20T06:51:54.723Z,14.57
2023-04-20T06:54:21.236Z,15.15
2023-04-20T06:56:51.527Z,14.68
2023-04-20T06:59:19.069Z,14.95
2023-04-20T07:01:45.815Z,15.40
2023-04-20T07:04:12.758Z,15.23
2023-04-20T07:06:39.332Z,15.00
2023-04-20T07:09:06.086Z,15.52
2023-04-20T07:11:32.556Z,14.13
2023-04-20T07:13:59.053Z,13.98
2023-04-20T07:16:25.659Z,13.02
2023-04-20T07:18:52.174Z,14.15
2023-04-20T07:21:18.633Z,13.65
2023-04-20T07:23:45.390Z,15.63
2023-04-20T07:26:12.090Z,17.85
2023-04-20T07:28:38.549Z,15.60
2023-04-20T07:31:05.070Z,17.23
2023-04-20T07:33:32.166Z,16.50
2023-04-20T07:35:58.773Z,15.77
2023-04-20T07:38:25.286Z,16.85
2023-04-20T07:40:51.777Z,17.23
2023-04-20T07:43:19.274Z,16.20
2023-04-20T07:45:45.760Z,17.55
2023-04-20T07:48:13.131Z,17.15
2023-04-20T07:50:39.811Z,17.00
2023-04-20T07:53:06.297Z,18.83
2023-04-20T07:55:32.862Z,18.30
2023-04-20T07:58:00.660Z,17.17
2023-04-20T08:00:27.138Z,16.77
2023-04-20T08:02:53.778Z,18.20
2023-04-20T08:05:20.677Z,18.52
2023-04-20T08:07:47.317Z,19.25
2023-04-20T08:10:13.848Z,17.95
2023-04-20T08:12:40.487Z,16.88
2023-04-20T08:15:07.507Z,17.88
2023-04-20T08:17:34.264Z,17.80
2023-04-20T08:20:01.288Z,19.20
2023-04-20T08:22:30.405Z,16.73
2023-04-20T08:24:57.580Z,18.27
2023-04-20T08:27:24.379Z,17.83
2023-04-20T08:29:50.874Z,18.52
2023-04-20T08:32:19.091Z,18.48
2023-04-20T08:34:45.637Z,17.13
2023-04-20T08:37:12.368Z,20.08
2023-04-20T08:39:39.188Z,18.02
2023-04-20T08:42:06.492Z,17.38
2023-04-20T08:44:32.923Z,16.35
2023-04-20T08:46:59.860Z,17.88
2023-04-20T08:49:27.184Z,17.38
2023-04-20T08:51:54.402Z,18.13
2023-04-20T08:54:21.724Z,16.90
2023-04-20T08:56:49.137Z,16.75
2023-04-20T08:59:16.713Z,16.63
2023-04-20T09:01:43.491Z,16.80
2023-04-20T09:04:20.555Z,16.83
2023-04-20T09:06:50.222Z,16.73
2023-04-20T09:09:17.453Z,18.10
2023-04-20T09:11:44.062Z,14.40
2023-04-20T09:14:12.561Z,15.65
2023-04-20T09:16:48.202Z,19.50
2023-04-20T09:19:14.785Z,17.10
2023-04-20T09:21:48.419Z,17.10
2023-04-20T09:24:15.011Z,19.20
2023-04-20T09:26:41.593Z,17.90
2023-04-20T09:29:17.714Z,18.52
2023-04-20T09:31:44.477Z,18.73
2023-04-20T09:34:10.945Z,17.98
2023-04-20T09:36:38.138Z,16.80
2023-04-20T09:39:06.901Z,17.92
2023-04-20T09:41:33.749Z,15.02
2023-04-20T09:44:00.823Z,16.70
2023-04-20T09:46:28.729Z,16.13
2023-04-20T09:48:55.225Z,17.17
2023-04-20T09:51:21.723Z,17.52
2023-04-20T09:53:49.929Z,18.02
2023-04-20T09:56:18.054Z,16.27
2023-04-20T09:58:44.562Z,18.27
2023-04-20T10:01:11.188Z,19.83
2023-04-20T10:03:37.782Z,18.33
2023-04-20T10:06:05.027Z,17.63
2023-04-20T10:08:42.010Z,18.13
2023-04-20T10:11:08.461Z,17.48
2023-04-20T10:13:35.395Z,17.48
2023-04-20T10:16:01.892Z,17.35
2023-04-20T10:18:28.420Z,17.52
2023-04-20T10:21:05.024Z,17.40
2023-04-20T10:23:31.758Z,17.30
2023-04-20T10:25:59.068Z,19.45
2023-04-20T10:28:26.251Z,18.45
2023-04-20T10:30:53.155Z,15.32
2023-04-20T10:33:19.801Z,17.08
2023-04-20T10:35:54.953Z,17.20
2023-04-20T10:38:35.186Z,17.50
2023-04-20T10:41:11.370Z,17.10
2023-04-20T10:43:43.427Z,18.30
2023-04-20T10:46:36.558Z,18.92
2023-04-20T10:49:03.724Z,18.10
2023-04-20T10:51:30.592Z,18.85
2023-04-20T10:54:00.145Z,19.60
2023-04-20T10:56:27.271Z,19.10
2023-04-20T10:58:54.147Z,17.38
2023-04-20T11:01:20.845Z,19.38
2023-04-20T11:03:49.521Z,20.20
2023-04-20T11:06:16.175Z,16.38
2023-04-20T11:08:43.433Z,19.48
2023-04-20T11:11:19.248Z,19.17
2023-04-20T11:13:45.777Z,15.57
2023-04-20T11:16:12.891Z,17.75
2023-04-20T11:18:49.064Z,15.43
2023-04-20T11:21:15.661Z,15.23
2023-04-20T11:23:43.646Z,16.27
2023-04-20T11:26:10.750Z,14.40
2023-04-20T11:28:37.265Z,15.32
2023-04-20T11:31:04.132Z,14.85
2023-04-20T11:33:30.987Z,15.10
2023-04-20T11:35:57.822Z,14.45
2023-04-20T11:38:34.088Z,13.65
2023-04-20T11:41:04.711Z,15.32
2023-04-20T11:43:31.922Z,15.45
2023-04-20T11:45:58.848Z,13.90
2023-04-20T11:48:25.893Z,14.50
2023-04-20T11:50:52.333Z,13.75
2023-04-20T11:53:18.921Z,13.73
2023-04-20T11:55:45.963Z,14.27
2023-04-20T11:58:12.418Z,14.52
2023-04-20T12:00:38.951Z,14.27
2023-04-20T12:03:05.755Z,14.50
2023-04-20T12:05:32.291Z,15.07
2023-04-20T12:07:58.821Z,14.10
2023-04-20T12:10:25.406Z,13.70
2023-04-20T12:12:52.297Z,13.02
2023-04-20T12:15:18.793Z,13.38
2023-04-20T12:17:45.479Z,12.18
2023-04-20T12:20:12.274Z,11.88
2023-04-20T12:22:39.010Z,11.98
2023-04-20T12:25:06.250Z,11.40
2023-04-20T12:27:32.740Z,10.60
2023-04-20T12:29:59.208Z,10.40
2023-04-20T12:32:25.668Z,13.35
2023-04-20T12:34:52.113Z,14.02
2023-04-20T12:37:20.243Z,12.60
2023-04-20T12:39:46.730Z,13.13
2023-04-20T12:42:13.412Z,12.88
2023-04-20T12:44:39.910Z,13.25
2023-04-20T12:47:06.660Z,12.93
2023-04-20T12:49:33.895Z,12.13
2023-04-20T12:52:00.499Z,13.02
2023-04-20T12:54:26.954Z,13.80
2023-04-20T12:56:53.733Z,12.98
2023-04-20T12:59:20.294Z,12.18
2023-04-20T13:01:46.806Z,12.05
2023-04-20T13:04:16.298Z,12.07
2023-04-20T13:06:43.020Z,11.55
2023-04-20T13:09:09.455Z,11.80
2023-04-20T13:11:35.958Z,11.85
2023-04-20T13:14:02.434Z,12.80
2023-04-20T13:16:29.673Z,12.07
2023-04-20T13:18:56.276Z,11.70
2023-04-20T13:21:22.830Z,10.75
2023-04-20T13:23:49.315Z,10.52
2023-04-20T13:26:15.755Z,10.57
2023-04-20T13:28:42.312Z,11.35
2023-04-20T13:31:08.903Z,12.15
2023-04-20T13:33:35.837Z,11.40
2023-04-20T13:36:02.448Z,12.30
2023-04-20T13:38:28.968Z,10.98
2023-04-20T13:40:55.772Z,11.20
2023-04-20T13:43:22.262Z,11.60
2023-04-20T13:45:48.804Z,10.73
2023-04-20T13:48:15.405Z,10.85
2023-04-20T13:50:42.124Z,10.82
2023-04-20T13:53:08.585Z,9.55
2023-04-20T13:55:35.159Z,9.55
2023-04-20T13:58:01.686Z,10.30
2023-04-20T14:00:28.136Z,10.82
2023-04-20T14:02:54.750Z,11.57
2023-04-20T14:05:21.406Z,10.70
2023-04-20T14:07:47.859Z,12.02
2023-04-20T14:10:14.461Z,9.13
2023-04-20T14:12:41.044Z,11.70
2023-04-20T14:15:07.688Z,10.02
2023-04-20T14:17:34.358Z,10.57
2023-04-20T14:20:00.990Z,9.55
2023-04-20T14:22:34.208Z,8.90
2023-04-20T14:25:01.219Z,9.45
2023-04-20T14:27:27.699Z,10.57
2023-04-20T14:29:54.188Z,9.75
2023-04-20T14:32:20.716Z,8.57
2023-04-20T14:34:47.186Z,9.07
2023-04-20T14:37:13.609Z,9.18
2023-04-20T14:39:40.072Z,8.50
2023-04-20T14:42:07.657Z,9.10
2023-04-20T14:44:34.272Z,8.68
2023-04-20T14:47:03.218Z,8.88
2023-04-20T14:49:29.704Z,8.93
2023-04-20T14:51:56.105Z,8.65
2023-04-20T14:54:22.870Z,8.23
2023-04-20T14:56:49.336Z,9.02
2023-04-20T14:59:15.964Z,8.95
2023-04-20T15:01:54.940Z,7.68
2023-04-20T15:04:28.107Z,8.35
2023-04-20T15:06:54.691Z,7.65
2023-04-20T15:09:21.288Z,7.93
2023-04-20T15:11:47.750Z,8.20
2023-04-20T15:14:14.218Z,7.75
2023-04-20T15:16:40.921Z,7.82
2023-04-20T15:19:07.503Z,8.30
2023-04-20T15:21:33.975Z,8.40
2023-04-20T15:24:00.527Z,8.60
2023-04-20T15:26:27.000Z,7.95
2023-04-20T15:28:53.464Z,8.05
2023-04-20T15:31:19.964Z,7.72
2023-04-20T15:33:48.088Z,8.70
2023-04-20T15:36:17.260Z,7.93
2023-04-20T15:38:43.694Z,7.93
2023-04-20T15:41:10.269Z,7.95
2023-04-20T15:43:36.915Z,6.80
2023-04-20T15:46:03.704Z,7.40
2023-04-20T15:48:30.224Z,7.47
2023-04-20T15:50:56.762Z,7.60
2023-04-20T15:53:23.192Z,7.70
2023-04-20T15:55:49.664Z,7.57
2023-04-20T15:58:16.212Z,8.15
2023-04-20T16:00:42.720Z,8.23
2023-04-20T16:03:09.448Z,7.47
2023-04-20T16:05:36.135Z,8.10
2023-04-20T16:08:02.563Z,8.02
2023-04-20T16:10:29.052Z,8.48
2023-04-20T16:12:56.304Z,8.55
2023-04-20T16:15:22.725Z,8.07
2023-04-20T16:17:49.240Z,7.88
2023-04-20T16:20:15.746Z,8.13
2023-04-20T16:22:42.186Z,7.90
2023-04-20T16:25:09.572Z,8.63
2023-04-20T16:27:36.017Z,8.70
2023-04-20T16:30:02.438Z,8.40
2023-04-20T16:32:28.943Z,9.27
2023-04-20T16:34:55.477Z,9.70
2023-04-20T16:37:22.087Z,8.10
2023-04-20T16:39:48.743Z,8.82
2023-04-20T16:42:15.491Z,8.77
2023-04-20T16:44:42.080Z,9.43
2023-04-20T16:47:10.658Z,8.95
2023-04-20T16:49:56.552Z,8.73
2023-04-20T16:52:23.022Z,8.55
2023-04-20T16:54:49.472Z,8.57
2023-04-20T16:57:16.009Z,8.48
2023-04-20T16:59:44.066Z,8.57
2023-04-20T17:02:12.348Z,8.07
2023-04-20T17:04:38.885Z,9.07
2023-04-20T17:07:05.708Z,8.77
2023-04-20T17:09:32.128Z,8.75
2023-04-20T17:11:59.450Z,9.15
2023-04-20T17:14:26.071Z,8.57
2023-04-20T17:16:54.366Z,9.15
2023-04-20T17:19:20.989Z,8.93
2023-04-20T17:21:47.410Z,9.98
2023-04-20T17:24:13.797Z,8.45
2023-04-20T17:26:40.255Z,10.23
2023-04-20T17:29:06.862Z,8.60
2023-04-20T17:31:33.538Z,8.80
2023-04-20T17:34:00.237Z,8.93
2023-04-20T17:36:28.030Z,7.90
2023-04-20T17:38:54.481Z,9.05
2023-04-20T17:41:21.145Z,8.73
2023-04-20T17:43:48.648Z,7.95
2023-04-20T17:46:15.129Z,7.80
2023-04-20T17:48:41.647Z,8.30
2023-04-20T17:51:08.058Z,7.30
2023-04-20T17:53:34.547Z,7.68
2023-04-20T17:56:01.161Z,7.55
2023-04-20T17:58:27.624Z,8.25
2023-04-20T18:00:54.098Z,7.15
2023-04-20T18:03:21.285Z,7.47
2023-04-20T18:05:47.990Z,6.50
2023-04-20T18:08:15.513Z,7.55
2023-04-20T18:10:42.116Z,8.27
2023-04-20T18:13:08.560Z,8.43
2023-04-20T18:15:35.125Z,7.53
2023-04-20T18:18:01.645Z,8.07
2023-04-20T18:20:29.447Z,8.27
2023-04-20T18:22:57.101Z,7.90
2023-04-20T18:25:23.596Z,7.68
2023-04-20T18:27:50.203Z,7.68
2023-04-20T18:30:17.731Z,8.52
2023-04-20T18:32:44.213Z,8.70
2023-04-20T18:35:11.216Z,7.95
2023-04-20T18:37:38.301Z,8.30
2023-04-20T18:40:05.006Z,8.27
2023-04-20T18:42:31.528Z,8.70
2023-04-20T18:44:58.150Z,9.32
2023-04-20T18:47:25.684Z,9.23
2023-04-20T18:49:53.385Z,9.38
2023-04-20T18:52:19.973Z,9.35
2023-04-20T18:54:47.597Z,8.90
2023-04-20T18:57:14.323Z,8.27
2023-04-20T18:59:40.972Z,9.38
2023-04-20T19:02:07.656Z,8.00
2023-04-20T19:04:36.267Z,9.32
2023-04-20T19:07:02.904Z,9.43
2023-04-20T19:09:29.506Z,9.05
2023-04-20T19:11:57.141Z,9.10
2023-04-20T19:14:23.640Z,9.18
2023-04-20T19:16:50.198Z,8.60
2023-04-20T19:19:16.793Z,9.65
2023-04-20T19:21:43.305Z,9.32
2023-04-20T19:24:40.889Z,8.85
2023-04-20T19:27:07.455Z,8.60
2023-04-20T19:29:35.349Z,8.55
2023-04-20T19:32:02.058Z,7.78
2023-04-20T19:34:28.541Z,8.52
2023-04-20T19:36:55.280Z,8.40
2023-04-20T19:39:21.710Z,8.38
2023-04-20T19:41:48.329Z,8.45
2023-04-20T19:44:15.034Z,8.15
2023-04-20T19:46:43.650Z,9.40
2023-04-20T19:49:10.240Z,7.95
2023-04-20T19:51:36.634Z,8.75
2023-04-20T19:54:04.509Z,9.02
2023-04-20T19:56:31.210Z,9.02
2023-04-20T19:58:57.808Z,8.73
2023-04-20T20:01:24.351Z,9.13
2023-04-20T20:03:51.021Z,8.13
2023-04-20T20:06:18.462Z,7.50
2023-04-20T20:08:44.963Z,7.25
2023-04-20T20:11:11.671Z,6.82
2023-04-20T20:13:38.099Z,6.20
2023-04-20T20:16:04.783Z,7.45
2023-04-20T20:18:31.357Z,6.18
2023-04-20T20:20:57.768Z,6.90
2023-04-20T20:23:24.362Z,6.82
2023-04-20T20:25:51.011Z,6.07
2023-04-20T20:31:45.490Z,6.80
2023-04-20T20:34:11.940Z,6.72
2023-04-20T20:36:38.645Z,6.75
2023-04-20T20:39:06.674Z,6.43
2023-04-20T20:41:33.355Z,6.68
2023-04-20T20:43:59.939Z,6.63
2023-04-20T20:46:26.755Z,5.65
2023-04-20T20:48:53.318Z,6.53
2023-04-20T20:51:19.921Z,6.45
2023-04-20T20:53:46.392Z,7.05
2023-04-20T20:56:12.954Z,6.53
2023-04-20T20:58:39.408Z,7.40
2023-04-20T21:01:06.326Z,7.22
2023-04-20T21:03:33.326Z,6.63
2023-04-20T21:05:59.947Z,7.20
2023-04-20T21:08:26.410Z,6.90
2023-04-20T21:10:52.920Z,6.85
2023-04-20T21:13:19.495Z,6.60
2023-04-20T21:15:46.818Z,6.70
2023-04-20T21:18:13.574Z,5.90
2023-04-20T21:20:40.078Z,6.32
2023-04-20T21:23:06.511Z,6.38
2023-04-20T21:25:32.946Z,6.10
2023-04-20T21:27:59.468Z,6.10
2023-04-20T21:30:26.022Z,6.30
2023-04-20T21:32:52.655Z,5.55
2023-04-20T21:35:19.218Z,5.68
2023-04-20T21:37:45.643Z,6.03
2023-04-20T21:40:12.414Z,5.60
2023-04-20T21:42:39.020Z,5.80
2023-04-20T21:45:05.687Z,5.85
2023-04-20T21:47:32.345Z,6.13
2023-04-20T21:49:58.971Z,6.07
2023-04-20T21:52:25.695Z,5.68
2023-04-20T21:54:52.304Z,6.30
2023-04-20T21:57:19.036Z,6.47
2023-04-20T21:59:45.604Z,7.80
2023-04-20T22:02:12.147Z,6.43
2023-04-20T22:04:39.587Z,6.78
2023-04-20T22:07:06.616Z,6.45
2023-04-20T22:09:33.227Z,6.43
2023-04-20T22:12:02.107Z,5.95
2023-04-20T22:14:28.838Z,5.55
2023-04-20T22:16:55.463Z,5.80
2023-04-20T22:19:22.272Z,6.13
2023-04-20T22:21:48.797Z,5.80
2023-04-20T22:24:15.450Z,6.05
2023-04-20T22:26:42.242Z,6.13
2023-04-20T22:29:08.745Z,6.05
2023-04-20T22:31:35.285Z,5.80
2023-04-20T22:34:02.019Z,6.65
2023-04-20T22:36:28.607Z,6.97
2023-04-20T22:38:55.125Z,6.47
2023-04-20T22:41:21.796Z,6.40
2023-04-20T22:43:48.394Z,6.82
2023-04-20T22:46:14.929Z,6.60
2023-04-20T22:48:41.749Z,6.25
2023-04-20T22:51:08.186Z,6.05
2023-04-20T22:53:34.629Z,6.00
2023-04-20T22:56:04.787Z,5.18
2023-04-20T22:59:01.206Z,4.90
2023-04-20T23:01:27.829Z,5.00
2023-04-20T23:03:54.572Z,5.40
2023-04-20T23:06:22.159Z,5.25
2023-04-20T23:08:49.464Z,6.32
2023-04-20T23:11:16.480Z,6.97
2023-04-20T23:13:43.138Z,5.10
2023-04-20T23:16:09.605Z,5.95
2023-04-20T23:18:36.103Z,5.38
2023-04-20T23:21:02.597Z,5.45
2023-04-20T23:23:28.978Z,5.40
2023-04-20T23:25:55.565Z,5.70
2023-04-20T23:28:22.398Z,6.15
2023-04-20T23:30:49.039Z,6.30
2023-04-20T23:33:16.080Z,5.93
2023-04-20T23:35:42.651Z,6.53
2023-04-20T23:38:09.876Z,6.78
2023-04-20T23:40:36.352Z,6.15
2023-04-20T23:43:03.295Z,6.28
2023-04-20T23:45:30.280Z,6.15
2023-04-20T23:47:56.777Z,7.30
2023-04-20T23:50:23.193Z,6.70
2023-04-20T23:52:49.801Z,5.50
2023-04-20T23:55:16.266Z,6.43
2023-04-20T23:57:42.778Z,6.07
